Time;durP1;ratioP1;P1;durP2;ratioP2;P2;SDS_P1;SDS_P2;PMS_P1;PMS_P2;Temp;Humidity;BMP_temperature;BMP_pressure;BME280_temperature;BME280_humidity;BME280_pressure;Samples;Min_cycle;Max_cycle;Signal;HPM_P1;HPM_P2
2021/04/30 00:00:58;;;;;;;;;59.70;46.80;;;;;14.03;68.61;100672.14;470001;116;387480;-76
2021/04/30 00:02:02;;;;;;;;;58.10;47.50;;;;;14.03;68.46;100685.52;469777;116;386092;-75
2021/04/30 00:03:06;;;;;;;;;57.80;47.20;;;;;14.03;68.46;100685.52;470058;116;386616;-75
2021/04/30 00:04:10;;;;;;;;;62.50;49.40;;;;;14.02;69.48;100679.31;471654;115;388320;-76
2021/04/30 00:05:15;;;;;;;;;57.20;45.40;;;;;14.02;69.03;100689.16;469945;116;394167;-75
2021/04/30 00:06:20;;;;;;;;;57.70;46.40;;;;;14.00;69.42;100681.28;471334;115;392409;-76
2021/04/30 00:07:24;;;;;;;;;60.30;47.30;;;;;14.00;69.75;100680.44;471918;115;386705;-76
2021/04/30 00:08:28;;;;;;;;;62.40;48.10;;;;;13.99;69.87;100684.08;469526;116;387311;-78
2021/04/30 00:09:32;;;;;;;;;67.60;51.00;;;;;13.99;69.09;100678.73;469263;116;388160;-78
2021/04/30 00:10:38;;;;;;;;;60.40;48.40;;;;;13.98;68.65;100682.38;469572;116;389483;-78
2021/04/30 00:11:42;;;;;;;;;66.70;50.50;;;;;13.98;68.65;100682.38;471866;115;389729;-78
2021/04/30 00:12:46;;;;;;;;;65.20;50.60;;;;;13.98;68.97;100671.69;471921;115;386611;-77
2021/04/30 00:13:50;;;;;;;;;63.30;49.10;;;;;13.98;68.97;100671.69;471905;115;386843;-78
2021/04/30 00:14:54;;;;;;;;;67.60;52.20;;;;;13.96;68.55;100679.86;471928;115;384963;-78
2021/04/30 00:15:58;;;;;;;;;69.60;52.10;;;;;13.95;68.51;100672.80;469966;116;389458;-78
2021/04/30 00:17:02;;;;;;;;;68.90;53.00;;;;;13.95;68.51;100672.80;470011;116;387365;-77
2021/04/30 00:18:06;;;;;;;;;65.40;51.40;;;;;13.95;68.53;100677.30;471949;115;386994;-78
2021/04/30 00:19:10;;;;;;;;;63.80;52.00;;;;;13.94;68.60;100665.79;471886;115;390306;-77
2021/04/30 00:20:16;;;;;;;;;62.60;50.20;;;;;13.94;67.97;100671.13;469782;116;385885;-78
2021/04/30 00:21:20;;;;;;;;;63.80;50.60;;;;;13.95;67.97;100663.93;469644;116;386801;-78
2021/04/30 00:22:24;;;;;;;;;62.90;49.90;;;;;13.93;67.83;100666.76;470047;116;387276;-79
2021/04/30 00:23:29;;;;;;;;;53.60;43.40;;;;;13.93;67.71;100668.58;472020;115;385190;-79
2021/04/30 00:24:33;;;;;;;;;58.80;46.90;;;;;13.93;67.52;100660.56;469545;116;385370;-80
2021/04/30 00:25:37;;;;;;;;;61.60;48.60;;;;;13.93;67.52;100660.56;471990;115;387829;-77
2021/04/30 00:26:42;;;;;;;;;61.40;47.50;;;;;13.91;67.46;100663.35;469806;116;386951;-79
2021/04/30 00:27:46;;;;;;;;;56.40;43.80;;;;;13.91;67.46;100663.35;469954;116;384787;-79
2021/04/30 00:28:51;;;;;;;;;55.80;45.70;;;;;13.91;68.04;100665.20;471981;115;386072;-77
2021/04/30 00:29:55;;;;;;;;;60.80;47.40;;;;;13.91;67.83;100665.20;471403;115;387720;-76
2021/04/30 00:30:59;;;;;;;;;54.00;41.90;;;;;13.87;67.96;100669.12;470055;116;387559;-78
2021/04/30 00:32:03;;;;;;;;;57.50;46.30;;;;;13.87;67.96;100669.12;470071;116;386177;-78
2021/04/30 00:33:07;;;;;;;;;59.11;46.89;;;;;13.87;67.47;100666.45;471273;115;387976;-78
2021/04/30 00:34:11;;;;;;;;;61.80;47.70;;;;;13.86;67.55;100662.92;471951;115;388332;-78
2021/04/30 00:35:15;;;;;;;;;55.60;45.40;;;;;13.87;67.68;100666.45;470068;116;385081;-80
2021/04/30 00:36:20;;;;;;;;;56.00;45.50;;;;;13.87;67.68;100666.45;469786;116;391235;-81
2021/04/30 00:37:24;;;;;;;;;53.30;42.80;;;;;13.85;67.45;100668.42;469587;116;384441;-81
2021/04/30 00:38:28;;;;;;;;;59.70;45.70;;;;;13.82;67.80;100665.98;472006;115;387113;-81
2021/04/30 00:39:32;;;;;;;;;55.30;46.30;;;;;13.82;67.80;100665.98;469984;116;386567;-80
2021/04/30 00:40:36;;;;;;;;;58.40;44.70;;;;;13.78;67.50;100668.94;471708;115;387115;-82
2021/04/30 00:41:42;;;;;;;;;53.10;43.30;;;;;13.76;67.60;100662.03;469983;116;385649;-81
2021/04/30 00:42:46;;;;;;;;;52.80;43.00;;;;;13.76;67.60;100662.03;471266;115;385915;-78
2021/04/30 00:43:50;;;;;;;;;56.00;45.00;;;;;13.76;67.96;100662.03;470045;116;385467;-81
2021/04/30 00:44:54;;;;;;;;;56.60;44.20;;;;;13.73;68.57;100662.30;471930;115;388111;-84
2021/04/30 00:45:58;;;;;;;;;55.60;45.00;;;;;13.71;68.27;100666.95;470014;116;390691;-77
2021/04/30 00:47:02;;;;;;;;;50.00;39.90;;;;;13.71;68.27;100666.95;464680;117;386262;-80
2021/04/30 00:48:08;;;;;;;;;56.00;45.20;;;;;13.70;68.08;100663.43;465176;117;385221;-79
2021/04/30 00:49:13;;;;;;;;;56.20;44.90;;;;;13.70;68.08;100663.43;471498;115;385375;-77
2021/04/30 00:50:17;;;;;;;;;54.40;43.00;;;;;13.71;67.66;100661.61;471691;115;386067;-78
2021/04/30 00:51:21;;;;;;;;;51.80;42.60;;;;;13.69;67.67;100655.53;471938;115;385731;-77
2021/04/30 00:52:28;;;;;;;;;51.10;41.70;;;;;13.68;67.11;100657.38;470007;116;386086;-77
2021/04/30 00:53:32;;;;;;;;;56.70;45.30;;;;;13.69;67.02;100648.36;471588;115;386487;-76
2021/04/30 00:54:36;;;;;;;;;51.50;40.60;;;;;13.69;67.02;100648.36;470080;116;385813;-77
2021/04/30 00:55:40;;;;;;;;;53.50;44.30;;;;;13.69;67.06;100644.84;469877;116;385995;-78
2021/04/30 00:56:44;;;;;;;;;56.60;44.50;;;;;13.67;67.21;100642.31;471938;115;385754;-76
2021/04/30 00:57:50;;;;;;;;;55.30;45.30;;;;;13.66;67.95;100653.13;471961;115;384331;-77
2021/04/30 00:58:54;;;;;;;;;60.00;47.10;;;;;13.66;68.06;100650.45;471738;115;387046;-78
2021/04/30 00:59:58;;;;;;;;;60.80;48.00;;;;;13.61;67.82;100653.55;470062;116;388413;-77
2021/04/30 01:01:02;;;;;;;;;69.20;52.70;;;;;13.61;67.82;100653.55;471945;115;388439;-81
2021/04/30 01:02:06;;;;;;;;;76.70;59.70;;;;;13.61;66.47;100661.56;472081;115;387736;-80
2021/04/30 01:03:10;;;;;;;;;74.30;56.70;;;;;13.61;66.69;100656.22;470055;116;387799;-80
2021/04/30 01:04:15;;;;;;;;;72.60;55.70;;;;;13.61;67.51;100650.87;472021;115;387422;-78
2021/04/30 01:05:19;;;;;;;;;71.80;55.50;;;;;13.61;67.51;100650.87;471929;115;387138;-79
2021/04/30 01:06:24;;;;;;;;;75.70;56.60;;;;;13.61;66.96;100652.70;471509;115;388351;-80
2021/04/30 01:07:28;;;;;;;;;79.30;62.90;;;;;13.61;66.84;100658.04;471969;115;389691;-82
2021/04/30 01:08:32;;;;;;;;;82.80;66.80;;;;;13.61;67.01;100658.04;472050;115;390940;-83
2021/04/30 01:09:36;;;;;;;;;91.00;78.20;;;;;13.58;66.71;100656.48;469975;116;391090;-80
2021/04/30 01:10:41;;;;;;;;;91.00;72.20;;;;;13.58;66.71;100656.48;471482;115;399539;-80
2021/04/30 01:11:45;;;;;;;;;88.10;75.50;;;;;13.56;66.46;100655.75;469576;116;400795;-80
2021/04/30 01:12:49;;;;;;;;;86.70;72.30;;;;;13.59;66.89;100655.48;469874;116;391269;-80
2021/04/30 01:13:53;;;;;;;;;85.00;75.70;;;;;13.59;65.92;100657.34;471914;115;390055;-78
2021/04/30 01:14:57;;;;;;;;;83.90;69.80;;;;;13.58;65.74;100653.81;471380;115;391068;-79
2021/04/30 01:16:01;;;;;;;;;84.60;67.90;;;;;13.58;65.74;100653.81;469914;116;392071;-78
2021/04/30 01:17:05;;;;;;;;;86.30;74.90;;;;;13.59;65.82;100655.48;469883;116;390746;-78
2021/04/30 01:18:09;;;;;;;;;98.20;77.10;;;;;13.60;65.46;100657.19;469595;116;393573;-79
2021/04/30 01:19:21;;;;;;;;;84.90;73.60;;;;;13.61;66.91;100658.89;469931;116;390260;-79
2021/04/30 01:20:26;;;;;;;;;88.20;73.40;;;;;13.60;65.38;100657.19;469153;116;393456;-78
2021/04/30 01:21:30;;;;;;;;;87.40;68.50;;;;;13.60;65.38;100657.19;469908;116;392686;-78
2021/04/30 01:22:35;;;;;;;;;86.20;73.20;;;;;13.57;64.54;100646.77;469871;116;391902;-78
2021/04/30 01:24:39;;;;;;;;;85.50;76.20;;;;;13.58;64.73;100653.81;471388;115;391887;-81
2021/04/30 01:25:50;;;;;;;;;90.30;78.20;;;;;13.58;64.73;100653.81;454829;118;390149;-78
2021/04/30 01:26:54;;;;;;;;;86.00;71.10;;;;;13.56;64.17;100649.59;455748;120;389541;-78
2021/04/30 01:27:58;;;;;;;;;87.20;73.70;;;;;13.53;64.14;100649.86;455675;120;397197;-78
2021/04/30 01:29:03;;;;;;;;;88.80;73.60;;;;;13.53;64.14;100649.86;455781;120;389627;-80
2021/04/30 01:30:10;;;;;;;;;84.90;74.50;;;;;13.50;63.86;100645.59;455075;120;389556;-80
2021/04/30 01:31:14;;;;;;;;;86.10;72.00;;;;;13.50;63.86;100645.59;455398;120;391291;-80
2021/04/30 01:32:18;;;;;;;;;83.70;69.10;;;;;13.49;63.70;100643.08;455746;120;390948;-78
2021/04/30 01:33:24;;;;;;;;;88.30;73.30;;;;;13.46;63.84;100636.18;455721;120;390434;-79
2021/04/30 01:34:27;;;;;;;;;92.10;73.10;;;;;13.46;63.72;100646.87;455110;120;393212;-79
2021/04/30 01:35:32;;;;;;;;;84.20;64.50;;;;;13.46;63.72;100646.87;455764;120;389980;-77
2021/04/30 01:36:37;;;;;;;;;77.50;58.60;;;;;13.45;63.30;100637.15;455418;120;388074;-78
2021/04/30 01:37:40;;;;;;;;;85.90;67.50;;;;;13.46;63.31;100644.20;469043;116;391773;-78
2021/04/30 01:38:44;;;;;;;;;77.20;59.40;;;;;13.46;63.37;100638.85;468769;116;386422;-78
2021/04/30 01:39:48;;;;;;;;;78.40;60.80;;;;;13.45;62.83;100644.31;469076;116;396786;-81
2021/04/30 01:40:52;;;;;;;;;77.50;60.50;;;;;13.44;62.55;100640.79;469121;116;393979;-79
2021/04/30 01:41:56;;;;;;;;;79.60;60.80;;;;;13.44;62.55;100640.79;469136;116;390593;-80
2021/04/30 01:43:02;;;;;;;;;82.00;67.70;;;;;13.45;62.85;100637.15;469123;116;389921;-79
2021/04/30 01:44:08;;;;;;;;;84.50;66.90;;;;;13.46;63.80;100638.00;468829;116;392440;-83
2021/04/30 01:45:13;;;;;;;;;83.30;65.50;;;;;13.46;63.24;100635.33;468838;116;390875;-80
2021/04/30 01:46:19;;;;;;;;;83.00;64.40;;;;;13.44;63.60;100637.27;468754;116;389560;-81
2021/04/30 01:47:23;;;;;;;;;79.10;60.20;;;;;13.41;63.17;100635.72;469189;116;389740;-79
2021/04/30 01:48:27;;;;;;;;;78.80;60.00;;;;;13.40;63.17;100638.53;468788;116;400119;-79
2021/04/30 01:49:31;;;;;;;;;76.60;56.50;;;;;13.38;63.10;100635.12;468929;116;388038;-80
2021/04/30 01:50:36;;;;;;;;;81.80;66.90;;;;;13.34;63.12;100631.88;469067;116;390062;-79
2021/04/30 01:51:39;;;;;;;;;80.40;66.70;;;;;13.34;63.77;100633.73;469089;116;388951;-79
2021/04/30 01:52:43;;;;;;;;;81.30;67.40;;;;;13.34;63.77;100633.73;468819;116;388496;-80
2021/04/30 01:53:47;;;;;;;;;79.40;63.20;;;;;13.33;63.98;100630.20;469139;116;390073;-80
2021/04/30 01:54:51;;;;;;;;;78.40;60.60;;;;;13.32;63.80;100627.65;469153;116;387463;-80
2021/04/30 01:55:55;;;;;;;;;78.80;61.60;;;;;13.29;63.67;100631.44;469131;116;389841;-80
2021/04/30 01:56:59;;;;;;;;;78.60;61.20;;;;;13.29;63.67;100631.44;468938;116;390943;-81
2021/04/30 01:58:03;;;;;;;;;79.60;60.60;;;;;13.28;63.50;100628.88;469126;116;388329;-80
2021/04/30 01:59:07;;;;;;;;;78.20;59.60;;;;;13.27;63.28;100628.06;468627;116;396180;-83
2021/04/30 02:00:20;;;;;;;;;77.60;58.50;;;;;13.28;63.51;100634.23;468899;116;386468;-81
2021/04/30 02:01:24;;;;;;;;;77.70;58.50;;;;;13.28;63.24;100631.55;468817;116;388548;-82
2021/04/30 02:02:28;;;;;;;;;79.90;59.60;;;;;13.27;62.81;100637.90;469255;116;389261;-83
2021/04/30 02:03:32;;;;;;;;;78.40;61.40;;;;;13.26;62.99;100642.39;468690;116;388172;-82
2021/04/30 02:04:39;;;;;;;;;76.10;56.50;;;;;13.24;62.76;100639.02;468423;116;386687;-79
2021/04/30 02:05:43;;;;;;;;;76.20;56.70;;;;;13.26;62.57;100642.39;468494;116;388793;-80
2021/04/30 02:06:48;;;;;;;;;75.30;57.00;;;;;13.26;62.57;100642.39;468910;116;388258;-80
2021/04/30 02:07:52;;;;;;;;;73.30;54.40;;;;;13.27;62.46;100640.57;469045;116;395777;-81
2021/04/30 02:08:56;;;;;;;;;70.00;55.00;;;;;13.29;62.44;100647.47;468625;116;393183;-82
2021/04/30 02:10:00;;;;;;;;;62.00;45.70;;;;;13.30;62.59;100643.83;469177;116;386618;-81
2021/04/30 02:11:04;;;;;;;;;62.70;48.50;;;;;13.30;62.59;100643.83;469096;116;393402;-81
2021/04/30 02:12:09;;;;;;;;;68.40;52.60;;;;;13.31;62.48;100652.66;469164;116;387265;-80
2021/04/30 02:13:13;;;;;;;;;66.50;50.00;;;;;13.29;62.25;100646.61;468875;116;389040;-80
2021/04/30 02:14:17;;;;;;;;;73.10;55.00;;;;;13.26;63.07;100650.41;468877;116;387744;-81
2021/04/30 02:15:22;;;;;;;;;68.60;53.70;;;;;13.26;63.07;100650.41;468633;116;393173;-78
2021/04/30 02:16:27;;;;;;;;;70.50;53.00;;;;;13.25;63.15;100651.37;459396;118;394129;-81
2021/04/30 02:17:31;;;;;;;;;69.80;52.70;;;;;13.25;63.15;100651.37;463073;118;388092;-80
2021/04/30 02:18:35;;;;;;;;;71.30;52.20;;;;;13.24;63.51;100655.04;468711;116;388971;-79
2021/04/30 02:19:39;;;;;;;;;70.90;53.10;;;;;13.19;63.32;100647.41;469138;116;388700;-78
2021/04/30 02:20:44;;;;;;;;;67.90;52.10;;;;;13.17;63.40;100649.38;468420;116;387689;-79
2021/04/30 02:21:48;;;;;;;;;71.90;53.60;;;;;13.17;63.40;100649.38;469152;116;388724;-79
2021/04/30 02:22:52;;;;;;;;;71.50;53.40;;;;;13.17;63.07;100651.20;469063;116;394845;-79
2021/04/30 02:23:56;;;;;;;;;70.80;54.30;;;;;13.17;63.07;100651.20;468839;116;388011;-79
2021/04/30 02:25:00;;;;;;;;;70.90;53.40;;;;;13.17;62.89;100653.86;469147;116;392733;-78
2021/04/30 02:26:05;;;;;;;;;69.70;53.10;;;;;13.13;62.91;100653.27;468755;116;393663;-81
2021/04/30 02:27:09;;;;;;;;;65.90;51.60;;;;;13.11;62.84;100652.54;468947;116;387727;-80
2021/04/30 02:28:13;;;;;;;;;62.80;50.20;;;;;13.11;62.84;100652.54;469193;116;387255;-77
2021/04/30 02:29:16;;;;;;;;;59.40;48.00;;;;;13.13;62.88;100647.08;469057;116;386432;-78
2021/04/30 02:30:22;;;;;;;;;69.10;51.30;;;;;13.13;62.88;100652.42;468815;116;388204;-78
2021/04/30 02:31:26;;;;;;;;;62.80;46.70;;;;;13.12;62.97;100654.24;469328;116;386443;-76
2021/04/30 02:32:31;;;;;;;;;60.00;46.80;;;;;13.08;63.53;100652.80;469548;116;385658;-77
2021/04/30 02:33:35;;;;;;;;;64.00;49.10;;;;;13.09;63.23;100656.33;469021;116;389037;-77
2021/04/30 02:34:38;;;;;;;;;65.80;49.80;;;;;13.09;63.23;100656.33;469180;116;387371;-77
2021/04/30 02:35:43;;;;;;;;;62.00;49.00;;;;;13.09;62.97;100662.52;468788;116;387613;-78
2021/04/30 02:36:48;;;;;;;;;65.50;50.70;;;;;13.08;63.21;100655.47;468552;116;390770;-78
2021/04/30 02:37:52;;;;;;;;;66.60;49.90;;;;;13.06;63.15;100657.41;469169;116;387547;-78
2021/04/30 02:38:55;;;;;;;;;61.80;48.40;;;;;13.07;62.79;100658.26;469067;116;394172;-78
2021/04/30 02:39:59;;;;;;;;;60.20;47.00;;;;;13.05;64.55;100655.70;468712;116;387204;-78
2021/04/30 02:41:03;;;;;;;;;62.20;47.40;;;;;13.05;63.22;100660.22;469174;116;388655;-78
2021/04/30 02:42:07;;;;;;;;;65.80;49.90;;;;;13.05;63.66;100662.89;469139;116;388266;-78
2021/04/30 02:43:12;;;;;;;;;63.70;48.70;;;;;13.05;63.66;100662.89;469110;116;389625;-83
2021/04/30 02:44:16;;;;;;;;;57.00;44.10;;;;;13.03;63.07;100657.66;469004;116;386599;-82
2021/04/30 02:45:19;;;;;;;;;60.30;48.40;;;;;13.03;63.07;100657.66;468816;116;386187;-82
2021/04/30 02:46:25;;;;;;;;;59.70;46.70;;;;;13.02;63.39;100660.45;468405;116;392560;-82
2021/04/30 02:47:30;;;;;;;;;45.10;38.30;;;;;13.00;63.19;100657.92;468973;116;386338;-81
2021/04/30 02:48:37;;;;;;;;;47.10;38.50;;;;;13.00;62.60;100657.08;468723;116;387297;-82
2021/04/30 02:49:41;;;;;;;;;50.50;39.20;;;;;13.00;63.06;100660.59;468628;116;384521;-81
2021/04/30 02:50:46;;;;;;;;;48.10;38.90;;;;;13.03;62.84;100649.66;468638;116;394233;-84
2021/04/30 02:51:50;;;;;;;;;49.90;41.10;;;;;13.04;63.06;100661.19;469146;116;385061;-82
2021/04/30 02:52:53;;;;;;;;;47.30;38.10;;;;;13.04;63.13;100658.52;469222;116;386191;-82
2021/04/30 02:53:57;;;;;;;;;54.10;43.20;;;;;13.02;63.55;100655.11;469154;116;384868;-81
2021/04/30 02:55:01;;;;;;;;;46.80;37.00;;;;;13.02;63.55;100655.11;468807;116;387735;-82
2021/04/30 02:56:06;;;;;;;;;41.10;33.80;;;;;13.02;63.47;100655.11;469042;116;385161;-82
2021/04/30 02:57:10;;;;;;;;;50.50;40.40;;;;;13.02;63.47;100655.11;468981;116;384459;-82
2021/04/30 02:58:14;;;;;;;;;45.80;37.20;;;;;13.00;63.33;100660.59;469242;116;387141;-79
2021/04/30 02:59:17;;;;;;;;;49.00;39.20;;;;;12.99;63.37;100656.23;469207;116;386765;-82
2021/04/30 03:00:22;;;;;;;;;48.50;38.80;;;;;12.99;63.21;100660.71;469014;116;385396;-84
2021/04/30 03:01:26;;;;;;;;;49.40;40.70;;;;;13.00;63.47;100659.75;468859;116;386015;-83
2021/04/30 03:02:30;;;;;;;;;49.10;38.70;;;;;13.01;63.95;100653.44;469289;116;386533;-83
2021/04/30 03:03:34;;;;;;;;;52.20;42.30;;;;;13.01;63.58;100658.78;469304;116;385946;-84
2021/04/30 03:04:38;;;;;;;;;50.80;41.60;;;;;12.98;63.37;100654.55;469269;116;385121;-81
2021/04/30 03:05:41;;;;;;;;;51.70;42.40;;;;;12.98;63.75;100664.38;469200;116;389747;-82
2021/04/30 03:06:45;;;;;;;;;51.90;42.50;;;;;12.97;62.58;100666.20;469220;116;385475;-82
2021/04/30 03:07:50;;;;;;;;;58.40;44.90;;;;;12.96;63.24;100655.63;469205;116;386863;-82
2021/04/30 03:08:54;;;;;;;;;58.20;45.30;;;;;12.90;63.48;100657.00;469202;116;385130;-82
2021/04/30 03:09:58;;;;;;;;;58.60;46.10;;;;;12.90;63.48;100657.00;468993;116;386767;-83
2021/04/30 03:11:02;;;;;;;;;55.60;44.70;;;;;12.88;63.59;100658.97;469149;116;386342;-81
2021/04/30 03:12:07;;;;;;;;;57.45;45.18;;;;;12.89;63.61;100654.48;469132;116;390400;-79
2021/04/30 03:13:11;;;;;;;;;60.80;47.10;;;;;12.89;63.44;100659.82;468375;116;394951;-78
2021/04/30 03:14:15;;;;;;;;;57.90;46.30;;;;;12.91;63.18;100652.52;469166;116;387170;-78
2021/04/30 03:15:19;;;;;;;;;57.00;45.70;;;;;12.91;63.18;100652.52;469253;116;384602;-78
2021/04/30 03:16:23;;;;;;;;;58.90;46.20;;;;;12.93;63.16;100659.41;468560;116;386519;-78
2021/04/30 03:17:29;;;;;;;;;56.50;45.90;;;;;12.94;63.66;100652.26;469216;116;384885;-78
2021/04/30 03:18:33;;;;;;;;;57.00;47.20;;;;;12.95;63.22;100657.48;468886;116;385929;-78
2021/04/30 03:19:37;;;;;;;;;59.90;47.70;;;;;12.96;63.17;100655.63;469205;116;390039;-79
2021/04/30 03:20:41;;;;;;;;;61.90;48.80;;;;;12.96;63.17;100655.63;469256;116;386699;-79
2021/04/30 03:21:45;;;;;;;;;64.50;48.90;;;;;12.96;63.20;100656.48;469211;116;387975;-78
2021/04/30 03:22:49;;;;;;;;;65.20;51.70;;;;;12.97;62.69;100657.34;469150;116;386767;-79
2021/04/30 03:23:53;;;;;;;;;61.70;47.70;;;;;12.97;62.69;100657.34;468730;116;392470;-78
2021/04/30 03:24:57;;;;;;;;;67.40;52.60;;;;;12.98;63.16;100664.38;468701;116;388451;-79
2021/04/30 03:26:01;;;;;;;;;65.70;51.90;;;;;12.94;63.78;100666.45;468721;116;387204;-79
2021/04/30 03:27:06;;;;;;;;;66.40;49.80;;;;;12.94;63.36;100665.61;468610;116;394532;-80
2021/04/30 03:28:10;;;;;;;;;65.00;51.60;;;;;12.94;63.36;100665.61;468856;116;394151;-75
2021/04/30 03:29:14;;;;;;;;;69.30;53.90;;;;;12.95;62.62;100662.82;469193;116;386203;-75
2021/04/30 03:30:20;;;;;;;;;69.60;54.20;;;;;12.92;62.78;100663.08;468908;116;387048;-76
2021/04/30 03:31:24;;;;;;;;;64.90;48.90;;;;;12.92;62.78;100663.08;468894;116;387291;-77
2021/04/30 03:32:28;;;;;;;;;70.20;54.80;;;;;12.93;63.35;100656.75;469148;116;386070;-77
2021/04/30 03:33:32;;;;;;;;;73.80;55.90;;;;;12.93;63.35;100656.75;468760;116;387741;-77
2021/04/30 03:34:35;;;;;;;;;68.50;53.30;;;;;12.93;62.38;100659.41;469214;116;386419;-77
2021/04/30 03:35:42;;;;;;;;;71.50;55.30;;;;;12.91;63.16;100655.19;469109;116;395005;-78
2021/04/30 03:36:56;;;;;;;;;73.30;55.80;;;;;12.91;63.16;100655.19;468384;116;388691;-79
2021/04/30 03:38:09;;;;;;;;;65.90;51.70;;;;;12.91;62.32;100658.70;468794;116;393299;-77
2021/04/30 03:39:13;;;;;;;;;71.50;56.10;;;;;12.89;62.36;100657.97;468871;116;387237;-77
2021/04/30 03:40:19;;;;;;;;;73.30;56.90;;;;;12.89;62.36;100657.97;466425;116;386341;-77
2021/04/30 03:41:27;;;;;;;;;74.60;57.10;;;;;12.88;62.42;100658.12;468790;116;388264;-78
2021/04/30 03:42:33;;;;;;;;;77.80;58.30;;;;;12.86;62.67;100660.90;469153;116;387629;-80
2021/04/30 03:43:42;;;;;;;;;76.40;58.00;;;;;12.87;62.24;100667.09;468842;116;389433;-79
2021/04/30 03:44:51;;;;;;;;;77.60;60.30;;;;;12.87;62.24;100667.09;460144;118;386777;-77
2021/04/30 03:45:55;;;;;;;;;77.70;57.30;;;;;12.86;62.53;100668.09;463294;116;388315;-76
2021/04/30 03:47:11;;;;;;;;;73.40;55.80;;;;;12.84;62.62;100672.69;469154;116;388853;-78
2021/04/30 03:48:15;;;;;;;;;74.70;57.70;;;;;12.84;62.75;100670.02;468755;116;387747;-78
2021/04/30 03:49:33;;;;;;;;;77.30;59.00;;;;;12.84;62.57;100667.34;469130;116;387286;-77
2021/04/30 03:50:40;;;;;;;;;76.50;57.00;;;;;12.84;62.73;100681.55;468606;116;388855;-78
2021/04/30 03:51:57;;;;;;;;;70.20;52.60;;;;;12.83;63.07;100673.69;468876;116;385410;-78
2021/04/30 03:53:10;;;;;;;;;86.00;71.20;;;;;12.83;63.07;100673.69;468543;116;397156;-76
2021/04/30 03:54:14;;;;;;;;;77.20;58.40;;;;;12.83;63.52;100679.84;469164;116;388522;-75
2021/04/30 03:55:20;;;;;;;;;78.00;60.80;;;;;12.83;63.52;100679.84;468740;116;387554;-76
2021/04/30 03:56:24;;;;;;;;;82.50;61.50;;;;;12.84;63.27;100676.21;468784;116;389390;-76
2021/04/30 03:57:30;;;;;;;;;78.70;58.90;;;;;12.84;63.27;100676.21;468902;116;387805;-77
2021/04/30 03:58:35;;;;;;;;;75.40;57.90;;;;;12.84;62.99;100681.55;468875;116;388622;-77
2021/04/30 03:59:39;;;;;;;;;72.20;54.80;;;;;12.83;62.97;100673.69;469134;116;387702;-75
2021/04/30 04:00:43;;;;;;;;;78.40;59.90;;;;;12.82;62.86;100675.50;468804;116;398703;-82
2021/04/30 04:01:47;;;;;;;;;67.60;55.50;;;;;12.83;63.01;100671.84;469120;116;386944;-81
2021/04/30 04:02:51;;;;;;;;;79.40;59.10;;;;;12.84;63.06;100676.21;469159;116;388394;-81
2021/04/30 04:03:54;;;;;;;;;71.70;56.70;;;;;12.89;63.05;100682.00;468736;116;388025;-81
2021/04/30 04:04:58;;;;;;;;;67.80;55.10;;;;;12.89;63.05;100682.00;468835;116;386675;-82
2021/04/30 04:06:02;;;;;;;;;73.30;56.50;;;;;12.88;63.55;100680.33;469115;116;388839;-78
2021/04/30 04:07:06;;;;;;;;;73.00;55.00;;;;;12.91;62.58;100673.88;469143;116;388687;-77
2021/04/30 04:08:10;;;;;;;;;71.70;53.70;;;;;12.92;63.28;100676.43;468716;116;388443;-79
2021/04/30 04:09:14;;;;;;;;;73.70;56.90;;;;;12.92;63.28;100676.43;469142;116;386542;-79
2021/04/30 04:10:19;;;;;;;;;73.30;56.30;;;;;12.92;63.61;100671.09;468900;116;388771;-79
2021/04/30 04:11:22;;;;;;;;;76.40;57.20;;;;;12.92;63.61;100671.09;468627;116;388838;-79
2021/04/30 04:12:26;;;;;;;;;76.30;57.10;;;;;12.94;63.38;100674.47;469152;116;389726;-79
2021/04/30 04:13:30;;;;;;;;;74.20;56.60;;;;;12.94;63.38;100674.47;469191;116;387638;-80
2021/04/30 04:14:34;;;;;;;;;69.90;55.20;;;;;12.95;63.11;100676.17;469163;116;386874;-80
2021/04/30 04:15:38;;;;;;;;;67.60;52.00;;;;;12.95;62.92;100664.64;468758;116;388311;-81
2021/04/30 04:16:43;;;;;;;;;70.50;54.80;;;;;12.96;63.51;100672.50;468344;116;387128;-78
2021/04/30 04:17:47;;;;;;;;;68.10;53.50;;;;;12.97;63.30;100679.55;469200;116;386854;-76
2021/04/30 04:18:51;;;;;;;;;71.90;55.20;;;;;12.99;63.86;100676.73;468406;116;395370;-77
2021/04/30 04:19:55;;;;;;;;;71.80;53.90;;;;;12.99;63.86;100676.73;460354;118;388862;-77
2021/04/30 04:20:59;;;;;;;;;71.00;53.70;;;;;13.00;63.58;100667.75;462589;118;395147;-77
2021/04/30 04:22:03;;;;;;;;;69.20;53.30;;;;;13.01;63.30;100672.13;469101;116;386776;-77
2021/04/30 04:23:06;;;;;;;;;70.10;54.00;;;;;13.01;62.65;100677.47;460020;118;387805;-78
2021/04/30 04:24:11;;;;;;;;;69.80;53.00;;;;;13.01;62.58;100680.14;462690;118;387653;-77
2021/04/30 04:25:14;;;;;;;;;71.50;54.30;;;;;13.01;62.71;100672.13;469107;116;388767;-77
2021/04/30 04:26:19;;;;;;;;;69.40;52.70;;;;;13.00;62.76;100686.45;468881;116;390820;-78
2021/04/30 04:27:23;;;;;;;;;59.00;46.90;;;;;12.98;62.62;100678.58;469463;116;385372;-81
2021/04/30 04:28:27;;;;;;;;;65.40;51.50;;;;;13.00;62.65;100681.95;469438;116;388413;-79
2021/04/30 04:29:31;;;;;;;;;66.10;51.10;;;;;13.01;63.08;100680.14;469307;116;388064;-78
2021/04/30 04:30:36;;;;;;;;;67.90;53.40;;;;;13.01;63.08;100680.14;468927;116;387537;-79
2021/04/30 04:31:40;;;;;;;;;68.10;52.60;;;;;12.99;62.72;100674.06;468857;116;388429;-77
2021/04/30 04:32:44;;;;;;;;;66.70;51.20;;;;;13.01;63.09;100680.14;469156;116;388430;-77
2021/04/30 04:33:48;;;;;;;;;69.70;54.30;;;;;13.01;63.09;100680.14;469071;116;394843;-76
2021/04/30 04:34:52;;;;;;;;;61.90;49.60;;;;;13.02;63.26;100676.47;468973;116;385916;-78
2021/04/30 04:35:56;;;;;;;;;61.90;49.10;;;;;13.02;63.19;100676.47;469149;116;393529;-77
2021/04/30 04:36:59;;;;;;;;;60.00;47.60;;;;;13.03;63.63;100678.17;468824;116;384611;-78
2021/04/30 04:38:04;;;;;;;;;65.60;50.20;;;;;13.03;63.63;100678.17;468665;116;388265;-78
2021/04/30 04:39:08;;;;;;;;;65.50;51.20;;;;;13.03;63.22;100673.69;469419;116;387505;-78
2021/04/30 04:40:15;;;;;;;;;66.40;51.00;;;;;13.07;63.23;100680.47;469939;116;387262;-78
2021/04/30 04:41:19;;;;;;;;;61.60;48.50;;;;;13.07;63.23;100680.47;469751;116;385996;-77
2021/04/30 04:42:23;;;;;;;;;63.70;50.80;;;;;13.09;63.00;100680.36;470001;116;386194;-78
2021/04/30 04:43:27;;;;;;;;;51.10;40.50;;;;;13.11;62.91;100675.75;472004;115;385364;-78
2021/04/30 04:44:31;;;;;;;;;66.50;50.90;;;;;13.12;62.83;100678.28;471477;115;387076;-78
2021/04/30 04:45:35;;;;;;;;;61.60;48.30;;;;;13.15;62.75;100678.02;471852;115;387729;-77
2021/04/30 04:46:39;;;;;;;;;63.30;47.90;;;;;13.15;62.75;100678.02;469398;116;392913;-77
2021/04/30 04:47:43;;;;;;;;;63.40;50.90;;;;;13.15;62.93;100675.34;471907;115;386321;-77
2021/04/30 04:48:47;;;;;;;;;64.10;50.00;;;;;13.17;63.05;100684.09;471946;115;387198;-77
2021/04/30 04:49:51;;;;;;;;;63.30;48.90;;;;;13.17;63.05;100684.09;470066;116;386680;-77
2021/04/30 04:50:56;;;;;;;;;65.50;50.00;;;;;13.20;63.11;100674.97;469695;116;387224;-76
2021/04/30 04:52:00;;;;;;;;;65.70;51.40;;;;;13.21;62.90;100681.98;464730;117;387894;-76